sensor_id;sensor_type;location;lat;lon;timestamp;P1;durP1;ratioP1;P2;durP2;ratioP2
71296;SDS011;59082;50.658;4.608;2023-08-06T04:57:48;1.20;;;1.10;;
71296;SDS011;59082;50.658;4.608;2023-08-06T05:00:13;1.93;;;1.73;;
71296;SDS011;59082;50.658;4.608;2023-08-06T05:02:39;2.80;;;1.63;;
71296;SDS011;59082;50.658;4.608;2023-08-06T05:05:04;1.20;;;1.10;;
71296;SDS011;59082;50.658;4.608;2023-08-06T05:07:30;1.67;;;1.38;;
71296;SDS011;59082;50.658;4.608;2023-08-06T05:09:55;2.07;;;1.33;;
71296;SDS011;59082;50.658;4.608;2023-08-06T05:12:21;3.13;;;1.67;;
71296;SDS011;59082;50.658;4.608;2023-08-06T05:14:46;3.33;;;1.57;;
71296;SDS011;59082;50.658;4.608;2023-08-06T05:17:12;2.70;;;2.27;;
71296;SDS011;59082;50.658;4.608;2023-08-06T05:19:37;1.80;;;1.57;;
71296;SDS011;59082;50.658;4.608;2023-08-06T05:22:02;2.47;;;1.67;;
71296;SDS011;59082;50.658;4.608;2023-08-06T05:24:28;2.57;;;1.63;;
71296;SDS011;59082;50.658;4.608;2023-08-06T05:26:53;2.83;;;2.50;;
71296;SDS011;59082;50.658;4.608;2023-08-06T05:29:19;4.13;;;2.23;;
71296;SDS011;59082;50.658;4.608;2023-08-06T05:31:44;3.17;;;2.53;;
71296;SDS011;59082;50.658;4.608;2023-08-06T05:34:10;3.20;;;2.80;;
71296;SDS011;59082;50.658;4.608;2023-08-06T05:36:35;4.87;;;2.13;;
71296;SDS011;59082;50.658;4.608;2023-08-06T05:39:00;3.63;;;2.80;;
71296;SDS011;59082;50.658;4.608;2023-08-06T05:41:26;4.57;;;2.80;;
71296;SDS011;59082;50.658;4.608;2023-08-06T05:43:51;4.47;;;2.70;;
71296;SDS011;59082;50.658;4.608;2023-08-06T05:46:17;3.28;;;2.97;;
71296;SDS011;59082;50.658;4.608;2023-08-06T05:48:42;3.57;;;2.60;;
71296;SDS011;59082;50.658;4.608;2023-08-06T05:51:07;5.70;;;2.47;;
71296;SDS011;59082;50.658;4.608;2023-08-06T05:53:33;6.77;;;3.20;;
71296;SDS011;59082;50.658;4.608;2023-08-06T05:55:58;8.45;;;3.17;;
71296;SDS011;59082;50.658;4.608;2023-08-06T05:58:24;6.17;;;3.07;;
71296;SDS011;59082;50.658;4.608;2023-08-06T06:00:51;5.57;;;3.90;;
71296;SDS011;59082;50.658;4.608;2023-08-06T06:03:17;5.82;;;2.72;;
71296;SDS011;59082;50.658;4.608;2023-08-06T06:05:42;5.07;;;2.60;;
71296;SDS011;59082;50.658;4.608;2023-08-06T06:08:08;6.13;;;3.42;;
71296;SDS011;59082;50.658;4.608;2023-08-06T06:10:33;6.83;;;3.90;;
71296;SDS011;59082;50.658;4.608;2023-08-06T06:12:58;7.43;;;3.83;;
71296;SDS011;59082;50.658;4.608;2023-08-06T06:15:24;7.20;;;3.73;;
71296;SDS011;59082;50.658;4.608;2023-08-06T06:17:49;9.52;;;4.18;;
71296;SDS011;59082;50.658;4.608;2023-08-06T06:20:15;6.47;;;3.53;;
71296;SDS011;59082;50.658;4.608;2023-08-06T06:22:40;8.30;;;4.47;;
71296;SDS011;59082;50.658;4.608;2023-08-06T06:25:06;8.37;;;4.37;;
71296;SDS011;59082;50.658;4.608;2023-08-06T06:27:31;6.07;;;4.20;;
71296;SDS011;59082;50.658;4.608;2023-08-06T06:29:57;11.27;;;3.70;;
71296;SDS011;59082;50.658;4.608;2023-08-06T06:32:22;7.67;;;4.60;;
71296;SDS011;59082;50.658;4.608;2023-08-06T06:34:47;9.23;;;3.43;;
71296;SDS011;59082;50.658;4.608;2023-08-06T06:37:13;8.82;;;3.72;;
71296;SDS011;59082;50.658;4.608;2023-08-06T06:39:38;12.37;;;3.80;;
71296;SDS011;59082;50.658;4.608;2023-08-06T06:42:04;9.03;;;4.13;;
71296;SDS011;59082;50.658;4.608;2023-08-06T06:44:30;8.82;;;4.03;;
71296;SDS011;59082;50.658;4.608;2023-08-06T06:46:55;6.50;;;3.17;;
71296;SDS011;59082;50.658;4.608;2023-08-06T06:49:21;10.00;;;4.03;;
71296;SDS011;59082;50.658;4.608;2023-08-06T06:51:46;16.67;;;4.40;;
71296;SDS011;59082;50.658;4.608;2023-08-06T06:54:11;9.20;;;4.40;;
71296;SDS011;59082;50.658;4.608;2023-08-06T06:56:37;7.20;;;3.37;;
71296;SDS011;59082;50.658;4.608;2023-08-06T06:59:02;8.63;;;3.27;;
71296;SDS011;59082;50.658;4.608;2023-08-06T07:01:28;8.60;;;3.27;;
71296;SDS011;59082;50.658;4.608;2023-08-06T07:03:53;7.40;;;3.03;;
71296;SDS011;59082;50.658;4.608;2023-08-06T07:06:21;5.80;;;4.10;;
71296;SDS011;59082;50.658;4.608;2023-08-06T07:08:46;7.90;;;3.45;;
71296;SDS011;59082;50.658;4.608;2023-08-06T07:11:11;10.67;;;3.30;;
71296;SDS011;59082;50.658;4.608;2023-08-06T07:13:37;10.15;;;5.25;;
71296;SDS011;59082;50.658;4.608;2023-08-06T07:16:02;6.97;;;3.07;;
71296;SDS011;59082;50.658;4.608;2023-08-06T07:18:28;8.37;;;3.90;;
71296;SDS011;59082;50.658;4.608;2023-08-06T07:20:54;5.28;;;2.63;;
71296;SDS011;59082;50.658;4.608;2023-08-06T07:23:24;8.00;;;3.23;;
71296;SDS011;59082;50.658;4.608;2023-08-06T07:25:49;7.72;;;3.28;;
71296;SDS011;59082;50.658;4.608;2023-08-06T07:28:15;7.67;;;3.30;;
71296;SDS011;59082;50.658;4.608;2023-08-06T07:30:41;9.27;;;3.08;;
71296;SDS011;59082;50.658;4.608;2023-08-06T07:33:06;8.82;;;2.72;;
71296;SDS011;59082;50.658;4.608;2023-08-06T07:35:32;9.70;;;2.67;;
71296;SDS011;59082;50.658;4.608;2023-08-06T07:37:58;15.90;;;2.90;;
71296;SDS011;59082;50.658;4.608;2023-08-06T07:40:24;8.70;;;2.17;;
71296;SDS011;59082;50.658;4.608;2023-08-06T07:42:50;4.53;;;2.40;;
71296;SDS011;59082;50.658;4.608;2023-08-06T07:45:15;3.87;;;1.63;;
71296;SDS011;59082;50.658;4.608;2023-08-06T07:47:40;6.47;;;2.33;;
71296;SDS011;59082;50.658;4.608;2023-08-06T07:50:07;4.05;;;1.60;;
71296;SDS011;59082;50.658;4.608;2023-08-06T07:52:33;7.43;;;1.90;;
71296;SDS011;59082;50.658;4.608;2023-08-06T07:54:58;9.45;;;2.50;;
71296;SDS011;59082;50.658;4.608;2023-08-06T07:57:25;3.37;;;2.53;;
71296;SDS011;59082;50.658;4.608;2023-08-06T07:59:50;6.35;;;1.75;;
71296;SDS011;59082;50.658;4.608;2023-08-06T08:02:16;4.70;;;1.77;;
71296;SDS011;59082;50.658;4.608;2023-08-06T08:04:41;3.23;;;0.90;;
71296;SDS011;59082;50.658;4.608;2023-08-06T08:07:07;6.00;;;1.47;;
71296;SDS011;59082;50.658;4.608;2023-08-06T08:09:34;5.18;;;1.25;;
71296;SDS011;59082;50.658;4.608;2023-08-06T08:11:59;6.40;;;1.73;;
71296;SDS011;59082;50.658;4.608;2023-08-06T08:14:26;6.03;;;1.77;;
71296;SDS011;59082;50.658;4.608;2023-08-06T08:16:51;7.03;;;2.00;;
71296;SDS011;59082;50.658;4.608;2023-08-06T08:19:17;8.90;;;1.30;;
71296;SDS011;59082;50.658;4.608;2023-08-06T08:21:42;4.47;;;1.53;;
71296;SDS011;59082;50.658;4.608;2023-08-06T08:24:07;6.00;;;1.67;;
71296;SDS011;59082;50.658;4.608;2023-08-06T08:26:33;6.97;;;1.53;;
71296;SDS011;59082;50.658;4.608;2023-08-06T08:28:58;6.13;;;1.43;;
71296;SDS011;59082;50.658;4.608;2023-08-06T08:31:24;2.90;;;0.75;;
71296;SDS011;59082;50.658;4.608;2023-08-06T08:33:49;3.40;;;1.40;;
71296;SDS011;59082;50.658;4.608;2023-08-06T08:36:14;3.63;;;1.40;;
71296;SDS011;59082;50.658;4.608;2023-08-06T08:38:40;4.03;;;1.33;;
71296;SDS011;59082;50.658;4.608;2023-08-06T08:41:06;4.13;;;1.85;;
71296;SDS011;59082;50.658;4.608;2023-08-06T08:43:34;6.18;;;1.60;;
71296;SDS011;59082;50.658;4.608;2023-08-06T08:46:00;13.00;;;2.40;;
71296;SDS011;59082;50.658;4.608;2023-08-06T08:48:27;3.83;;;1.60;;
71296;SDS011;59082;50.658;4.608;2023-08-06T08:50:53;5.68;;;2.00;;
71296;SDS011;59082;50.658;4.608;2023-08-06T08:53:18;3.67;;;1.80;;
71296;SDS011;59082;50.658;4.608;2023-08-06T08:55:46;7.22;;;1.70;;
71296;SDS011;59082;50.658;4.608;2023-08-06T08:58:11;3.60;;;1.33;;
71296;SDS011;59082;50.658;4.608;2023-08-06T09:00:37;4.40;;;1.75;;
71296;SDS011;59082;50.658;4.608;2023-08-06T09:03:04;6.17;;;2.03;;
71296;SDS011;59082;50.658;4.608;2023-08-06T09:05:31;4.68;;;1.63;;
71296;SDS011;59082;50.658;4.608;2023-08-06T09:08:00;6.77;;;1.50;;
71296;SDS011;59082;50.658;4.608;2023-08-06T09:10:28;6.20;;;1.42;;
71296;SDS011;59082;50.658;4.608;2023-08-06T09:12:54;3.83;;;1.40;;
71296;SDS011;59082;50.658;4.608;2023-08-06T09:15:20;3.42;;;1.35;;
71296;SDS011;59082;50.658;4.608;2023-08-06T09:17:46;3.30;;;1.37;;
71296;SDS011;59082;50.658;4.608;2023-08-06T09:20:12;2.43;;;1.70;;
71296;SDS011;59082;50.658;4.608;2023-08-06T09:22:37;6.15;;;1.13;;
71296;SDS011;59082;50.658;4.608;2023-08-06T09:25:03;5.20;;;1.33;;
71296;SDS011;59082;50.658;4.608;2023-08-06T09:27:34;3.75;;;1.23;;
71296;SDS011;59082;50.658;4.608;2023-08-06T09:30:00;3.13;;;1.33;;
71296;SDS011;59082;50.658;4.608;2023-08-06T09:32:25;3.67;;;1.33;;
71296;SDS011;59082;50.658;4.608;2023-08-06T09:34:54;6.67;;;1.80;;
71296;SDS011;59082;50.658;4.608;2023-08-06T09:37:20;5.15;;;1.38;;
71296;SDS011;59082;50.658;4.608;2023-08-06T09:39:46;5.35;;;1.25;;
71296;SDS011;59082;50.658;4.608;2023-08-06T09:42:14;2.53;;;1.40;;
71296;SDS011;59082;50.658;4.608;2023-08-06T09:44:40;5.15;;;1.83;;
71296;SDS011;59082;50.658;4.608;2023-08-06T09:47:05;3.80;;;1.67;;
71296;SDS011;59082;50.658;4.608;2023-08-06T09:51:59;5.28;;;1.85;;
71296;SDS011;59082;50.658;4.608;2023-08-06T09:54:25;5.33;;;2.57;;
71296;SDS011;59082;50.658;4.608;2023-08-06T09:56:52;4.75;;;1.42;;
71296;SDS011;59082;50.658;4.608;2023-08-06T09:59:17;8.25;;;1.95;;
71296;SDS011;59082;50.658;4.608;2023-08-06T10:01:43;7.87;;;1.53;;
71296;SDS011;59082;50.658;4.608;2023-08-06T10:04:08;4.10;;;1.65;;
71296;SDS011;59082;50.658;4.608;2023-08-06T10:06:35;5.87;;;1.37;;
71296;SDS011;59082;50.658;4.608;2023-08-06T10:09:02;5.88;;;2.10;;
71296;SDS011;59082;50.658;4.608;2023-08-06T10:11:27;5.78;;;2.47;;
71296;SDS011;59082;50.658;4.608;2023-08-06T10:14:16;9.25;;;2.70;;
71296;SDS011;59082;50.658;4.608;2023-08-06T10:16:40;8.50;;;2.83;;
71296;SDS011;59082;50.658;4.608;2023-08-06T10:19:07;6.00;;;2.70;;
71296;SDS011;59082;50.658;4.608;2023-08-06T10:21:34;6.70;;;2.13;;
71296;SDS011;59082;50.658;4.608;2023-08-06T10:23:59;3.33;;;1.47;;
71296;SDS011;59082;50.658;4.608;2023-08-06T10:26:31;6.30;;;2.65;;
71296;SDS011;59082;50.658;4.608;2023-08-06T10:28:57;9.98;;;2.78;;
71296;SDS011;59082;50.658;4.608;2023-08-06T10:34:16;5.50;;;1.48;;
71296;SDS011;59082;50.658;4.608;2023-08-06T10:36:41;4.40;;;1.75;;
71296;SDS011;59082;50.658;4.608;2023-08-06T10:39:07;2.63;;;1.50;;
71296;SDS011;59082;50.658;4.608;2023-08-06T10:41:38;7.47;;;3.60;;
71296;SDS011;59082;50.658;4.608;2023-08-06T10:44:07;10.82;;;4.13;;
71296;SDS011;59082;50.658;4.608;2023-08-06T10:46:33;4.72;;;2.03;;
71296;SDS011;59082;50.658;4.608;2023-08-06T10:48:59;4.57;;;1.57;;
71296;SDS011;59082;50.658;4.608;2023-08-06T10:51:24;5.07;;;1.73;;
71296;SDS011;59082;50.658;4.608;2023-08-06T10:53:50;3.65;;;1.52;;
71296;SDS011;59082;50.658;4.608;2023-08-06T10:56:16;3.30;;;1.90;;
71296;SDS011;59082;50.658;4.608;2023-08-06T10:58:43;4.40;;;1.75;;
71296;SDS011;59082;50.658;4.608;2023-08-06T11:01:09;4.93;;;2.50;;
71296;SDS011;59082;50.658;4.608;2023-08-06T11:03:35;5.60;;;2.20;;
71296;SDS011;59082;50.658;4.608;2023-08-06T11:06:01;4.20;;;1.75;;
71296;SDS011;59082;50.658;4.608;2023-08-06T11:08:28;1.93;;;1.43;;
71296;SDS011;59082;50.658;4.608;2023-08-06T11:10:54;3.28;;;1.52;;
71296;SDS011;59082;50.658;4.608;2023-08-06T11:13:22;2.77;;;2.10;;
71296;SDS011;59082;50.658;4.608;2023-08-06T11:15:48;5.32;;;1.88;;
71296;SDS011;59082;50.658;4.608;2023-08-06T11:18:13;3.60;;;1.63;;
71296;SDS011;59082;50.658;4.608;2023-08-06T11:20:38;3.72;;;2.53;;
71296;SDS011;59082;50.658;4.608;2023-08-06T11:23:04;4.93;;;1.87;;
71296;SDS011;59082;50.658;4.608;2023-08-06T11:25:29;6.40;;;1.25;;
71296;SDS011;59082;50.658;4.608;2023-08-06T11:27:55;5.53;;;1.80;;
71296;SDS011;59082;50.658;4.608;2023-08-06T11:30:20;3.27;;;1.23;;
71296;SDS011;59082;50.658;4.608;2023-08-06T11:32:46;10.97;;;2.10;;
71296;SDS011;59082;50.658;4.608;2023-08-06T11:35:12;6.50;;;1.45;;
71296;SDS011;59082;50.658;4.608;2023-08-06T11:37:38;4.20;;;1.63;;
71296;SDS011;59082;50.658;4.608;2023-08-06T11:40:07;4.60;;;1.85;;
71296;SDS011;59082;50.658;4.608;2023-08-06T11:42:33;3.53;;;1.63;;
71296;SDS011;59082;50.658;4.608;2023-08-06T11:45:02;5.70;;;1.40;;
71296;SDS011;59082;50.658;4.608;2023-08-06T11:47:30;6.63;;;1.40;;
71296;SDS011;59082;50.658;4.608;2023-08-06T11:49:56;5.27;;;1.40;;
71296;SDS011;59082;50.658;4.608;2023-08-06T11:52:24;5.85;;;2.22;;
71296;SDS011;59082;50.658;4.608;2023-08-06T11:55:00;2.83;;;1.70;;
71296;SDS011;59082;50.658;4.608;2023-08-06T11:57:28;2.70;;;0.83;;
71296;SDS011;59082;50.658;4.608;2023-08-06T11:59:54;2.78;;;1.30;;
71296;SDS011;59082;50.658;4.608;2023-08-06T12:02:20;4.60;;;1.83;;
71296;SDS011;59082;50.658;4.608;2023-08-06T12:04:58;5.40;;;1.15;;
71296;SDS011;59082;50.658;4.608;2023-08-06T12:07:28;4.43;;;1.75;;
71296;SDS011;59082;50.658;4.608;2023-08-06T12:09:54;2.53;;;1.90;;
71296;SDS011;59082;50.658;4.608;2023-08-06T12:12:19;3.40;;;1.30;;
71296;SDS011;59082;50.658;4.608;2023-08-06T12:14:45;8.00;;;1.77;;
71296;SDS011;59082;50.658;4.608;2023-08-06T12:17:10;5.07;;;2.33;;
71296;SDS011;59082;50.658;4.608;2023-08-06T12:19:36;3.40;;;1.35;;
71296;SDS011;59082;50.658;4.608;2023-08-06T12:22:01;5.83;;;1.20;;
71296;SDS011;59082;50.658;4.608;2023-08-06T12:24:27;2.55;;;1.60;;
71296;SDS011;59082;50.658;4.608;2023-08-06T12:26:56;2.05;;;1.63;;
71296;SDS011;59082;50.658;4.608;2023-08-06T12:29:22;5.03;;;1.50;;
71296;SDS011;59082;50.658;4.608;2023-08-06T12:32:00;2.53;;;1.13;;
71296;SDS011;59082;50.658;4.608;2023-08-06T12:34:26;2.38;;;1.15;;
71296;SDS011;59082;50.658;4.608;2023-08-06T12:36:52;1.10;;;0.50;;
71296;SDS011;59082;50.658;4.608;2023-08-06T12:39:17;4.43;;;1.52;;
71296;SDS011;59082;50.658;4.608;2023-08-06T12:41:45;3.23;;;1.20;;
71296;SDS011;59082;50.658;4.608;2023-08-06T12:44:11;3.95;;;1.83;;
71296;SDS011;59082;50.658;4.608;2023-08-06T12:46:37;2.70;;;1.33;;
71296;SDS011;59082;50.658;4.608;2023-08-06T12:49:02;4.50;;;1.52;;
71296;SDS011;59082;50.658;4.608;2023-08-06T12:51:28;4.17;;;1.70;;
71296;SDS011;59082;50.658;4.608;2023-08-06T12:53:54;3.17;;;1.70;;
71296;SDS011;59082;50.658;4.608;2023-08-06T12:56:20;3.95;;;1.60;;
71296;SDS011;59082;50.658;4.608;2023-08-06T12:58:45;4.87;;;1.13;;
71296;SDS011;59082;50.658;4.608;2023-08-06T13:01:11;5.18;;;1.02;;
71296;SDS011;59082;50.658;4.608;2023-08-06T13:03:36;4.83;;;1.37;;
71296;SDS011;59082;50.658;4.608;2023-08-06T13:06:01;4.93;;;1.33;;
71296;SDS011;59082;50.658;4.608;2023-08-06T13:08:27;4.77;;;1.43;;
71296;SDS011;59082;50.658;4.608;2023-08-06T13:10:52;2.10;;;1.27;;
71296;SDS011;59082;50.658;4.608;2023-08-06T13:13:18;3.22;;;1.30;;
71296;SDS011;59082;50.658;4.608;2023-08-06T13:15:43;3.93;;;1.50;;
71296;SDS011;59082;50.658;4.608;2023-08-06T13:18:09;3.80;;;1.13;;
71296;SDS011;59082;50.658;4.608;2023-08-06T13:20:34;3.95;;;1.67;;
71296;SDS011;59082;50.658;4.608;2023-08-06T13:22:59;2.30;;;1.93;;
71296;SDS011;59082;50.658;4.608;2023-08-06T13:25:27;3.25;;;1.77;;
71296;SDS011;59082;50.658;4.608;2023-08-06T13:27:55;5.73;;;2.43;;
71296;SDS011;59082;50.658;4.608;2023-08-06T13:30:21;4.25;;;2.67;;
71296;SDS011;59082;50.658;4.608;2023-08-06T13:32:48;6.63;;;2.17;;
71296;SDS011;59082;50.658;4.608;2023-08-06T13:35:13;5.65;;;1.38;;
71296;SDS011;59082;50.658;4.608;2023-08-06T13:37:39;8.33;;;2.00;;
71296;SDS011;59082;50.658;4.608;2023-08-06T13:40:05;9.87;;;2.07;;
71296;SDS011;59082;50.658;4.608;2023-08-06T13:42:31;4.70;;;1.70;;
71296;SDS011;59082;50.658;4.608;2023-08-06T13:44:57;5.18;;;1.90;;
71296;SDS011;59082;50.658;4.608;2023-08-06T13:47:28;3.38;;;1.55;;
71296;SDS011;59082;50.658;4.608;2023-08-06T13:49:53;3.73;;;1.63;;
71296;SDS011;59082;50.658;4.608;2023-08-06T13:52:19;5.13;;;1.57;;
71296;SDS011;59082;50.658;4.608;2023-08-06T13:54:44;7.80;;;1.95;;
71296;SDS011;59082;50.658;4.608;2023-08-06T13:57:10;4.03;;;2.57;;
71296;SDS011;59082;50.658;4.608;2023-08-06T13:59:35;3.53;;;1.63;;
71296;SDS011;59082;50.658;4.608;2023-08-06T14:02:01;4.38;;;2.15;;
71296;SDS011;59082;50.658;4.608;2023-08-06T14:04:26;5.10;;;1.93;;
71296;SDS011;59082;50.658;4.608;2023-08-06T14:06:52;2.60;;;1.80;;
71296;SDS011;59082;50.658;4.608;2023-08-06T14:09:18;2.60;;;1.15;;
71296;SDS011;59082;50.658;4.608;2023-08-06T14:11:44;3.70;;;1.63;;
71296;SDS011;59082;50.658;4.608;2023-08-06T14:14:10;3.72;;;1.58;;
71296;SDS011;59082;50.658;4.608;2023-08-06T14:16:36;3.00;;;1.20;;
71296;SDS011;59082;50.658;4.608;2023-08-06T14:19:01;3.73;;;1.40;;
71296;SDS011;59082;50.658;4.608;2023-08-06T14:21:27;6.80;;;1.85;;
71296;SDS011;59082;50.658;4.608;2023-08-06T14:23:52;3.93;;;1.60;;
71296;SDS011;59082;50.658;4.608;2023-08-06T14:26:17;7.60;;;2.00;;
71296;SDS011;59082;50.658;4.608;2023-08-06T14:28:43;5.10;;;2.20;;
71296;SDS011;59082;50.658;4.608;2023-08-06T14:31:09;5.57;;;2.00;;
71296;SDS011;59082;50.658;4.608;2023-08-06T14:33:35;6.63;;;1.57;;
71296;SDS011;59082;50.658;4.608;2023-08-06T14:36:00;4.80;;;1.65;;
71296;SDS011;59082;50.658;4.608;2023-08-06T14:38:26;4.10;;;1.50;;
71296;SDS011;59082;50.658;4.608;2023-08-06T14:40:52;4.88;;;1.55;;
71296;SDS011;59082;50.658;4.608;2023-08-06T14:43:17;6.37;;;2.17;;
71296;SDS011;59082;50.658;4.608;2023-08-06T14:45:44;4.50;;;1.87;;
71296;SDS011;59082;50.658;4.608;2023-08-06T14:48:10;5.35;;;1.70;;
71296;SDS011;59082;50.658;4.608;2023-08-06T14:50:35;7.17;;;1.50;;
71296;SDS011;59082;50.658;4.608;2023-08-06T14:53:00;3.45;;;1.75;;
71296;SDS011;59082;50.658;4.608;2023-08-06T14:55:27;7.67;;;1.33;;
71296;SDS011;59082;50.658;4.608;2023-08-06T14:57:53;4.93;;;1.63;;
71296;SDS011;59082;50.658;4.608;2023-08-06T15:00:19;6.73;;;1.70;;
71296;SDS011;59082;50.658;4.608;2023-08-06T15:02:44;4.55;;;1.95;;
71296;SDS011;59082;50.658;4.608;2023-08-06T15:05:10;6.93;;;2.07;;
71296;SDS011;59082;50.658;4.608;2023-08-06T15:07:35;3.73;;;1.90;;
71296;SDS011;59082;50.658;4.608;2023-08-06T15:10:02;6.28;;;1.75;;
71296;SDS011;59082;50.658;4.608;2023-08-06T15:12:27;3.60;;;1.27;;
71296;SDS011;59082;50.658;4.608;2023-08-06T15:14:53;6.27;;;2.47;;
71296;SDS011;59082;50.658;4.608;2023-08-06T15:17:21;3.78;;;1.58;;
71296;SDS011;59082;50.658;4.608;2023-08-06T15:19:47;5.93;;;1.67;;
71296;SDS011;59082;50.658;4.608;2023-08-06T15:22:13;3.65;;;1.90;;
71296;SDS011;59082;50.658;4.608;2023-08-06T15:24:38;5.67;;;1.90;;
71296;SDS011;59082;50.658;4.608;2023-08-06T15:27:07;8.57;;;1.70;;
71296;SDS011;59082;50.658;4.608;2023-08-06T15:29:32;3.80;;;1.87;;
71296;SDS011;59082;50.658;4.608;2023-08-06T15:31:58;6.07;;;2.70;;
71296;SDS011;59082;50.658;4.608;2023-08-06T15:34:23;4.88;;;2.35;;
71296;SDS011;59082;50.658;4.608;2023-08-06T15:36:49;5.90;;;1.70;;
71296;SDS011;59082;50.658;4.608;2023-08-06T15:39:14;4.90;;;2.87;;
71296;SDS011;59082;50.658;4.608;2023-08-06T15:41:40;5.00;;;2.67;;
71296;SDS011;59082;50.658;4.608;2023-08-06T15:44:05;4.75;;;1.52;;
71296;SDS011;59082;50.658;4.608;2023-08-06T15:46:30;5.63;;;1.70;;
71296;SDS011;59082;50.658;4.608;2023-08-06T15:48:56;6.97;;;2.20;;
71296;SDS011;59082;50.658;4.608;2023-08-06T15:51:21;9.67;;;1.93;;
71296;SDS011;59082;50.658;4.608;2023-08-06T15:53:47;9.00;;;2.20;;
71296;SDS011;59082;50.658;4.608;2023-08-06T15:56:12;7.33;;;1.70;;
71296;SDS011;59082;50.658;4.608;2023-08-06T15:58:37;8.57;;;1.90;;
71296;SDS011;59082;50.658;4.608;2023-08-06T16:01:03;8.17;;;1.33;;
71296;SDS011;59082;50.658;4.608;2023-08-06T16:03:28;5.40;;;2.83;;
71296;SDS011;59082;50.658;4.608;2023-08-06T16:05:54;5.40;;;2.20;;
71296;SDS011;59082;50.658;4.608;2023-08-06T16:08:19;5.10;;;1.70;;
71296;SDS011;59082;50.658;4.608;2023-08-06T16:10:44;6.03;;;3.10;;
71296;SDS011;59082;50.658;4.608;2023-08-06T16:13:10;5.43;;;2.50;;
71296;SDS011;59082;50.658;4.608;2023-08-06T16:15:35;4.03;;;2.30;;
71296;SDS011;59082;50.658;4.608;2023-08-06T16:18:01;5.23;;;1.40;;
71296;SDS011;59082;50.658;4.608;2023-08-06T16:20:26;6.00;;;1.30;;
71296;SDS011;59082;50.658;4.608;2023-08-06T16:22:52;6.25;;;1.88;;
71296;SDS011;59082;50.658;4.608;2023-08-06T16:25:17;6.30;;;1.37;;
71296;SDS011;59082;50.658;4.608;2023-08-06T16:27:43;4.07;;;1.10;;
71296;SDS011;59082;50.658;4.608;2023-08-06T16:30:08;4.13;;;1.33;;
71296;SDS011;59082;50.658;4.608;2023-08-06T16:32:34;5.27;;;1.40;;
71296;SDS011;59082;50.658;4.608;2023-08-06T16:35:01;5.10;;;1.27;;
71296;SDS011;59082;50.658;4.608;2023-08-06T16:37:26;7.78;;;2.17;;
71296;SDS011;59082;50.658;4.608;2023-08-06T16:39:52;3.93;;;1.47;;
71296;SDS011;59082;50.658;4.608;2023-08-06T16:42:17;7.47;;;2.03;;
71296;SDS011;59082;50.658;4.608;2023-08-06T16:44:43;6.83;;;1.67;;
71296;SDS011;59082;50.658;4.608;2023-08-06T16:47:08;5.47;;;1.63;;
71296;SDS011;59082;50.658;4.608;2023-08-06T16:49:34;6.07;;;2.03;;
71296;SDS011;59082;50.658;4.608;2023-08-06T16:51:59;4.07;;;2.08;;
71296;SDS011;59082;50.658;4.608;2023-08-06T16:54:25;4.07;;;0.90;;
71296;SDS011;59082;50.658;4.608;2023-08-06T16:56:50;9.07;;;1.57;;
71296;SDS011;59082;50.658;4.608;2023-08-06T16:59:16;4.57;;;1.50;;
71296;SDS011;59082;50.658;4.608;2023-08-06T17:01:41;5.05;;;1.35;;
71296;SDS011;59082;50.658;4.608;2023-08-06T17:04:07;7.80;;;1.50;;
71296;SDS011;59082;50.658;4.608;2023-08-06T17:06:32;9.80;;;2.37;;
71296;SDS011;59082;50.658;4.608;2023-08-06T17:08:58;3.80;;;1.10;;
71296;SDS011;59082;50.658;4.608;2023-08-06T17:11:23;4.72;;;1.27;;
71296;SDS011;59082;50.658;4.608;2023-08-06T17:13:48;7.83;;;1.70;;
71296;SDS011;59082;50.658;4.608;2023-08-06T17:16:14;3.67;;;2.13;;
71296;SDS011;59082;50.658;4.608;2023-08-06T17:18:41;4.25;;;1.60;;
71296;SDS011;59082;50.658;4.608;2023-08-06T17:21:07;4.70;;;2.10;;
71296;SDS011;59082;50.658;4.608;2023-08-06T17:23:33;6.97;;;1.87;;
71296;SDS011;59082;50.658;4.608;2023-08-06T17:25:58;5.00;;;1.23;;
71296;SDS011;59082;50.658;4.608;2023-08-06T17:28:24;7.27;;;2.37;;
71296;SDS011;59082;50.658;4.608;2023-08-06T17:30:49;10.15;;;1.17;;
71296;SDS011;59082;50.658;4.608;2023-08-06T17:33:15;6.00;;;1.50;;
71296;SDS011;59082;50.658;4.608;2023-08-06T17:35:42;6.20;;;1.83;;
71296;SDS011;59082;50.658;4.608;2023-08-06T17:38:08;5.15;;;2.08;;
71296;SDS011;59082;50.658;4.608;2023-08-06T17:40:34;6.60;;;1.55;;
71296;SDS011;59082;50.658;4.608;2023-08-06T17:43:00;5.70;;;1.93;;
71296;SDS011;59082;50.658;4.608;2023-08-06T17:45:25;2.70;;;1.60;;
71296;SDS011;59082;50.658;4.608;2023-08-06T17:47:51;4.37;;;1.23;;
71296;SDS011;59082;50.658;4.608;2023-08-06T17:50:16;2.35;;;1.33;;
71296;SDS011;59082;50.658;4.608;2023-08-06T17:52:42;5.70;;;1.67;;
71296;SDS011;59082;50.658;4.608;2023-08-06T17:55:07;4.17;;;1.33;;
71296;SDS011;59082;50.658;4.608;2023-08-06T17:57:32;6.90;;;0.73;;
71296;SDS011;59082;50.658;4.608;2023-08-06T17:59:58;5.33;;;1.30;;
71296;SDS011;59082;50.658;4.608;2023-08-06T18:02:24;5.10;;;1.60;;
71296;SDS011;59082;50.658;4.608;2023-08-06T18:04:49;7.63;;;1.87;;
71296;SDS011;59082;50.658;4.608;2023-08-06T18:07:15;6.97;;;2.00;;
71296;SDS011;59082;50.658;4.608;2023-08-06T18:09:40;5.57;;;1.77;;
71296;SDS011;59082;50.658;4.608;2023-08-06T18:12:06;4.22;;;1.90;;
71296;SDS011;59082;50.658;4.608;2023-08-06T18:14:35;4.73;;;1.37;;
71296;SDS011;59082;50.658;4.608;2023-08-06T18:17:00;6.13;;;1.60;;
71296;SDS011;59082;50.658;4.608;2023-08-06T18:19:26;6.90;;;1.58;;
71296;SDS011;59082;50.658;4.608;2023-08-06T18:21:51;9.03;;;2.37;;
71296;SDS011;59082;50.658;4.608;2023-08-06T18:24:17;7.03;;;2.17;;
71296;SDS011;59082;50.658;4.608;2023-08-06T18:26:42;7.03;;;1.90;;
71296;SDS011;59082;50.658;4.608;2023-08-06T18:29:08;7.35;;;1.33;;
71296;SDS011;59082;50.658;4.608;2023-08-06T18:31:34;9.93;;;1.60;;
71296;SDS011;59082;50.658;4.608;2023-08-06T18:34:01;5.80;;;1.75;;
71296;SDS011;59082;50.658;4.608;2023-08-06T18:36:27;6.87;;;1.30;;
71296;SDS011;59082;50.658;4.608;2023-08-06T18:38:54;6.03;;;2.25;;
71296;SDS011;59082;50.658;4.608;2023-08-06T18:41:20;5.03;;;1.60;;
71296;SDS011;59082;50.658;4.608;2023-08-06T18:43:45;10.35;;;2.63;;
71296;SDS011;59082;50.658;4.608;2023-08-06T18:46:11;4.90;;;1.60;;
71296;SDS011;59082;50.658;4.608;2023-08-06T18:48:36;4.60;;;1.73;;
71296;SDS011;59082;50.658;4.608;2023-08-06T18:51:01;7.50;;;1.97;;
71296;SDS011;59082;50.658;4.608;2023-08-06T18:53:27;7.23;;;1.90;;
71296;SDS011;59082;50.658;4.608;2023-08-06T18:55:52;6.60;;;1.88;;
71296;SDS011;59082;50.658;4.608;2023-08-06T18:58:18;7.13;;;1.73;;
71296;SDS011;59082;50.658;4.608;2023-08-06T19:00:43;5.53;;;1.73;;
71296;SDS011;59082;50.658;4.608;2023-08-06T19:03:09;8.15;;;2.47;;
71296;SDS011;59082;50.658;4.608;2023-08-06T19:05:38;6.53;;;2.33;;
71296;SDS011;59082;50.658;4.608;2023-08-06T19:08:04;9.07;;;2.65;;
71296;SDS011;59082;50.658;4.608;2023-08-06T19:10:29;4.78;;;1.60;;
71296;SDS011;59082;50.658;4.608;2023-08-06T19:12:57;6.43;;;2.30;;
71296;SDS011;59082;50.658;4.608;2023-08-06T19:15:23;8.82;;;1.88;;
71296;SDS011;59082;50.658;4.608;2023-08-06T19:17:48;6.37;;;2.43;;
71296;SDS011;59082;50.658;4.608;2023-08-06T19:20:14;4.50;;;2.07;;
71296;SDS011;59082;50.658;4.608;2023-08-06T19:22:39;4.72;;;1.90;;
71296;SDS011;59082;50.658;4.608;2023-08-06T19:25:05;6.27;;;2.30;;
71296;SDS011;59082;50.658;4.608;2023-08-06T19:27:30;8.57;;;2.00;;
71296;SDS011;59082;50.658;4.608;2023-08-06T19:29:56;7.47;;;2.23;;
71296;SDS011;59082;50.658;4.608;2023-08-06T19:32:21;6.85;;;2.58;;
71296;SDS011;59082;50.658;4.608;2023-08-06T19:34:46;6.83;;;1.90;;
71296;SDS011;59082;50.658;4.608;2023-08-06T19:37:12;5.87;;;2.20;;
71296;SDS011;59082;50.658;4.608;2023-08-06T19:39:38;7.28;;;2.78;;
71296;SDS011;59082;50.658;4.608;2023-08-06T19:42:03;7.33;;;2.07;;